Time;durP1;ratioP1;P1;durP2;ratioP2;P2;SDS_P1;SDS_P2;PMS_P1;PMS_P2;Temp;Humidity;BMP_temperature;BMP_pressure;BME280_temperature;BME280_humidity;BME280_pressure;Samples;Min_cycle;Max_cycle;Signal;HPM_P1;HPM_P2
2023/09/14 00:01:43;;;;;;;2.30;2.20;;;;;;;14.05;83.60;101946.75;4897910;29;20199;-67
2023/09/14 00:04:09;;;;;;;2.20;1.90;;;;;;;14.01;83.25;101948.03;4897845;29;20215;-67
2023/09/14 00:06:36;;;;;;;4.30;2.80;;;;;;;13.98;83.80;101948.34;4898148;29;20257;-67
2023/09/14 00:09:03;;;;;;;8.53;2.80;;;;;;;14.00;83.67;101946.38;4898070;29;20221;-67
2023/09/14 00:11:29;;;;;;;2.87;2.63;;;;;;;13.92;83.42;101947.06;4900384;29;20588;-67
2023/09/14 00:13:55;;;;;;;11.13;2.83;;;;;;;13.87;83.96;101949.34;4901710;29;20189;-67
2023/09/14 00:16:22;;;;;;;2.20;2.00;;;;;;;13.88;83.90;101947.47;4901659;29;20192;-67
2023/09/14 00:18:49;;;;;;;2.07;2.07;;;;;;;13.87;84.18;101945.81;4901893;29;20303;-67
2023/09/14 00:21:15;;;;;;;1.70;1.70;;;;;;;13.84;84.30;101955.00;4901511;29;20220;-67
2023/09/14 00:23:42;;;;;;;2.27;2.27;;;;;;;13.81;84.12;101946.38;4901710;29;20216;-67
2023/09/14 00:26:08;;;;;;;2.60;2.60;;;;;;;13.79;84.36;101945.69;4901656;29;20704;-67
2023/09/14 00:28:35;;;;;;;2.53;2.43;;;;;;;13.75;84.36;101939.72;4900697;29;20201;-67
2023/09/14 00:31:02;;;;;;;7.53;2.57;;;;;;;13.73;84.49;101945.25;4900128;29;20220;-67
2023/09/14 00:33:28;;;;;;;2.30;2.20;;;;;;;13.71;84.06;101938.31;4884685;29;20540;-67
2023/09/14 00:35:55;;;;;;;6.07;2.50;;;;;;;13.71;84.98;101936.47;4901518;29;20227;-67
2023/09/14 00:38:22;;;;;;;3.27;2.73;;;;;;;13.70;84.81;101936.63;4901568;29;20193;-67
2023/09/14 00:40:50;;;;;;;2.40;2.40;;;;;;;13.70;84.84;101944.69;4901907;29;20216;-67
2023/09/14 00:43:16;;;;;;;2.33;1.90;;;;;;;13.69;84.52;101935.78;4899903;29;20276;-67
2023/09/14 00:45:43;;;;;;;5.67;2.60;;;;;;;13.69;84.92;101945.69;4901686;29;20234;-67
2023/09/14 00:48:11;;;;;;;3.20;2.73;;;;;;;13.66;85.23;101940.59;4899854;29;20197;-67
2023/09/14 00:50:38;;;;;;;2.07;2.07;;;;;;;13.63;85.12;101938.16;4901445;29;20251;-67
2023/09/14 00:53:13;;;;;;;2.40;2.20;;;;;;;13.58;85.22;101937.75;4901528;29;20292;-67
2023/09/14 00:55:42;;;;;;;2.40;2.33;;;;;;;13.56;85.32;101937.06;4899688;29;20204;-67
2023/09/14 00:58:14;;;;;;;3.03;2.77;;;;;;;13.53;85.37;101930.13;4901162;29;20593;-67
2023/09/14 01:00:43;;;;;;;5.40;3.00;;;;;;;13.57;85.40;101938.75;4901382;29;20351;-67
2023/09/14 01:03:12;;;;;;;3.93;3.30;;;;;;;13.54;85.47;101942.56;4901253;29;20217;-67
2023/09/14 01:05:39;;;;;;;2.93;2.83;;;;;;;13.54;85.54;101941.69;4901315;29;20212;-67
2023/09/14 01:08:06;;;;;;;2.97;2.40;;;;;;;13.52;85.50;101936.50;4901260;29;20244;-67
2023/09/14 01:10:33;;;;;;;5.60;2.40;;;;;;;13.52;85.33;101941.00;4900652;29;20220;-67
2023/09/14 01:12:59;;;;;;;2.23;2.17;;;;;;;13.45;85.32;101929.97;4899412;29;20617;-67
2023/09/14 01:15:34;;;;;;;2.83;2.50;;;;;;;13.40;85.47;101931.41;4900623;29;20197;-67
2023/09/14 01:18:15;;;;;;;2.60;2.50;;;;;;;13.37;85.48;101937.03;4899399;29;20220;-67
2023/09/14 01:21:13;;;;;;;3.33;1.70;;;;;;;13.33;85.64;101935.59;4899507;29;20212;-67
2023/09/14 01:24:01;;;;;;;4.40;2.80;;;;;;;13.27;85.52;101942.41;4899456;29;20553;-67
2023/09/14 01:26:29;;;;;;;2.40;2.30;;;;;;;13.26;85.75;101938.00;4899280;29;20192;-67
2023/09/14 01:28:57;;;;;;;3.03;2.93;;;;;;;13.23;85.70;101941.00;4899179;29;20207;-67
2023/09/14 01:31:23;;;;;;;2.33;2.33;;;;;;;13.22;85.74;101950.03;4899112;29;20271;-67
2023/09/14 01:33:50;;;;;;;3.73;2.50;;;;;;;13.19;85.63;101947.63;4900789;29;20653;-67
2023/09/14 01:36:28;;;;;;;3.70;2.20;;;;;;;13.16;85.90;101948.75;4899009;29;20207;-67
2023/09/14 01:38:55;;;;;;;6.23;2.40;;;;;;;13.13;85.91;101949.03;4900750;29;20188;-67
2023/09/14 01:41:23;;;;;;;2.70;2.57;;;;;;;13.09;86.01;101950.25;4900302;29;20215;-67
2023/09/14 01:43:53;;;;;;;2.47;2.37;;;;;;;13.07;86.00;101948.72;4898779;29;20224;-67
2023/09/14 01:46:20;;;;;;;2.60;2.50;;;;;;;13.04;85.94;101952.50;4900101;29;20658;-67
2023/09/14 01:48:47;;;;;;;6.10;3.10;;;;;;;13.03;85.87;101945.41;4898809;29;20207;-67
2023/09/14 01:51:14;;;;;;;2.33;2.07;;;;;;;13.00;86.00;101943.03;4898956;29;20224;-68
2023/09/14 01:53:41;;;;;;;2.77;2.67;;;;;;;12.96;86.11;101952.34;4898681;29;20188;-67
2023/09/14 01:56:07;;;;;;;2.20;2.20;;;;;;;12.96;86.14;101949.66;4899912;29;20196;-67
2023/09/14 01:58:35;;;;;;;2.80;2.70;;;;;;;12.95;86.34;101955.16;4899127;29;20204;-67
2023/09/14 02:01:02;;;;;;;6.00;2.73;;;;;;;12.92;86.39;101952.75;4898494;29;20248;-68
2023/09/14 02:03:30;;;;;;;2.20;2.10;;;;;;;12.93;86.88;101949.94;4898442;29;20217;-68
2023/09/14 02:06:01;;;;;;;6.70;2.50;;;;;;;12.93;86.47;101949.94;4898460;29;20211;-67
2023/09/14 02:08:30;;;;;;;2.20;2.20;;;;;;;12.92;87.12;101947.38;4898457;29;20243;-67
2023/09/14 02:10:56;;;;;;;3.17;2.70;;;;;;;12.93;86.76;101949.09;4900552;29;20264;-67
2023/09/14 02:13:26;;;;;;;3.63;2.73;;;;;;;12.91;86.39;101943.00;4899170;29;20189;-67
2023/09/14 02:15:53;;;;;;;2.63;2.63;;;;;;;12.89;86.32;101948.50;4898311;29;20232;-67
2023/09/14 02:18:20;;;;;;;2.37;2.37;;;;;;;12.86;86.70;101950.63;4898239;29;20665;-67
2023/09/14 02:20:46;;;;;;;3.50;3.20;;;;;;;12.76;86.93;101935.34;4898154;29;20614;-67
2023/09/14 02:23:15;;;;;;;5.40;3.00;;;;;;;12.74;86.96;101941.81;4898317;29;20222;-67
2023/09/14 02:25:43;;;;;;;3.57;2.77;;;;;;;12.75;86.79;101940.81;4899617;29;20200;-67
2023/09/14 02:28:09;;;;;;;2.60;2.50;;;;;;;12.76;87.04;101946.06;4899355;29;20602;-67
2023/09/14 02:30:39;;;;;;;3.67;2.40;;;;;;;12.78;86.87;101940.53;4897936;29;20240;-68
2023/09/14 02:33:07;;;;;;;2.40;2.30;;;;;;;12.83;87.38;101946.38;4899038;29;20626;-68
2023/09/14 02:35:35;;;;;;;7.37;3.40;;;;;;;12.84;87.18;101942.69;4898269;29;20672;-67
2023/09/14 02:38:02;;;;;;;3.90;2.20;;;;;;;12.83;87.05;101946.38;4899270;29;20200;-67
2023/09/14 02:40:29;;;;;;;2.17;2.13;;;;;;;12.82;87.42;101933.91;4899429;29;20621;-68
2023/09/14 02:42:56;;;;;;;3.93;2.70;;;;;;;12.80;87.28;101941.28;4897674;29;20708;-68
2023/09/14 02:45:23;;;;;;;2.27;2.20;;;;;;;12.78;87.40;101945.91;4897734;29;20661;-68
2023/09/14 02:47:50;;;;;;;3.63;3.33;;;;;;;12.73;87.17;101943.63;4897719;29;20203;-67
2023/09/14 02:50:16;;;;;;;3.23;3.03;;;;;;;12.69;87.29;101939.53;4897600;29;20634;-68
2023/09/14 02:52:43;;;;;;;1.97;1.97;;;;;;;12.66;87.36;101947.00;4897844;29;20201;-68
2023/09/14 02:55:09;;;;;;;3.70;3.37;;;;;;;12.65;87.39;101950.66;4897539;29;20203;-68
2023/09/14 02:57:36;;;;;;;2.07;1.93;;;;;;;12.65;87.88;101948.84;4897501;29;20672;-67
2023/09/14 03:00:06;;;;;;;2.10;2.10;;;;;;;12.66;87.62;101949.69;4898676;29;20208;-67
2023/09/14 03:02:33;;;;;;;3.27;2.47;;;;;;;12.63;87.33;101948.13;4897481;29;20196;-67
2023/09/14 03:05:00;;;;;;;2.27;2.17;;;;;;;12.63;87.91;101948.13;4897350;29;20641;-67
2023/09/14 03:07:27;;;;;;;3.07;2.27;;;;;;;12.64;87.85;101949.00;4897397;29;20576;-67
2023/09/14 03:09:54;;;;;;;3.07;2.90;;;;;;;12.62;87.58;101946.44;4897864;29;20227;-67
2023/09/14 03:12:20;;;;;;;2.97;2.50;;;;;;;12.65;87.91;101953.34;4897297;29;20581;-67
2023/09/14 03:14:47;;;;;;;2.83;2.63;;;;;;;12.67;87.97;101943.34;4899053;29;20185;-67
2023/09/14 03:17:13;;;;;;;2.47;2.37;;;;;;;12.66;87.67;101953.22;4898467;29;20191;-67
2023/09/14 03:19:44;;;;;;;1.87;1.83;;;;;;;12.67;87.86;101954.94;4897122;29;20260;-67
2023/09/14 03:22:11;;;;;;;2.90;2.80;;;;;;;12.67;87.88;101951.41;4898645;29;20199;-67
2023/09/14 03:24:37;;;;;;;2.67;2.37;;;;;;;12.67;87.58;101940.66;4898783;29;20216;-67
2023/09/14 03:27:04;;;;;;;2.90;2.77;;;;;;;12.66;87.94;101949.69;4897107;29;20204;-67
2023/09/14 03:29:32;;;;;;;3.17;2.30;;;;;;;12.66;88.20;101947.00;4897006;29;20204;-68
2023/09/14 03:31:59;;;;;;;3.77;3.10;;;;;;;12.67;88.15;101948.72;4897005;29;20202;-68
2023/09/14 03:34:26;;;;;;;5.27;3.20;;;;;;;12.65;88.01;101953.34;4896988;29;20605;-68
2023/09/14 03:36:52;;;;;;;6.43;3.53;;;;;;;12.61;88.06;101960.81;4898438;29;20260;-68
2023/09/14 03:39:19;;;;;;;2.57;2.47;;;;;;;12.58;88.38;101960.25;4896977;29;20200;-68
2023/09/14 03:41:48;;;;;;;2.87;2.77;;;;;;;12.59;88.11;101961.94;4898021;29;20188;-68
2023/09/14 03:44:16;;;;;;;7.23;3.43;;;;;;;12.61;88.06;101959.97;4896581;29;20211;-68
2023/09/14 03:46:42;;;;;;;3.43;3.23;;;;;;;12.61;88.24;101960.81;4898046;29;20207;-68
2023/09/14 03:49:09;;;;;;;3.60;3.07;;;;;;;12.61;88.13;101957.28;4898567;29;20216;-68
2023/09/14 03:51:35;;;;;;;2.77;2.67;;;;;;;12.62;88.39;101957.16;4897927;29;20228;-68
2023/09/14 03:54:02;;;;;;;2.20;2.20;;;;;;;12.63;88.56;101956.19;4898487;29;20271;-68
2023/09/14 03:56:29;;;;;;;2.93;2.20;;;;;;;12.66;88.45;101950.53;4896738;29;20677;-68
2023/09/14 03:58:55;;;;;;;5.07;3.00;;;;;;;12.69;88.40;101955.63;4898225;29;20661;-68
2023/09/14 04:01:21;;;;;;;5.30;3.60;;;;;;;12.74;88.36;101960.59;4896659;29;20243;-68
2023/09/14 04:03:48;;;;;;;2.77;2.67;;;;;;;12.73;88.55;101956.22;4897823;29;20276;-67
2023/09/14 04:06:17;;;;;;;2.37;2.27;;;;;;;12.67;88.50;101959.44;4898129;29;20184;-67
2023/09/14 04:08:43;;;;;;;3.57;3.37;;;;;;;12.66;88.72;101963.97;4896637;29;20287;-67
2023/09/14 04:11:10;;;;;;;3.20;2.37;;;;;;;12.67;88.68;101957.63;4896526;29;20216;-67
2023/09/14 04:13:37;;;;;;;2.90;2.73;;;;;;;12.71;88.63;101959.03;4896812;29;20193;-67
2023/09/14 04:16:07;;;;;;;4.10;2.50;;;;;;;12.71;88.64;101967.09;4896521;29;20239;-67
2023/09/14 04:18:38;;;;;;;3.70;2.87;;;;;;;12.72;89.33;101959.88;4896563;29;20252;-67
2023/09/14 04:21:05;;;;;;;2.90;2.67;;;;;;;12.74;88.95;101966.81;4896439;29;20221;-67
2023/09/14 04:23:32;;;;;;;8.97;2.67;;;;;;;12.77;89.15;101971.91;4896423;29;20216;-67
2023/09/14 04:26:00;;;;;;;3.30;3.10;;;;;;;12.78;89.06;101959.34;4897248;29;20192;-67
2023/09/14 04:28:27;;;;;;;3.27;3.03;;;;;;;12.78;88.99;101970.91;4896420;29;20328;-67
2023/09/14 04:30:58;;;;;;;3.03;3.03;;;;;;;12.76;89.23;101964.00;4896430;29;20696;-67
2023/09/14 04:33:25;;;;;;;3.37;3.27;;;;;;;12.75;89.23;101970.34;4896428;29;20189;-67
2023/09/14 04:36:03;;;;;;;4.13;3.37;;;;;;;12.76;89.01;101969.38;4897850;29;20199;-67
2023/09/14 04:38:30;;;;;;;3.30;3.17;;;;;;;12.75;89.05;101965.84;4896422;29;20224;-67
2023/09/14 04:40:57;;;;;;;3.40;3.30;;;;;;;12.76;89.29;101966.69;4896479;29;20221;-68
2023/09/14 04:43:24;;;;;;;3.93;3.57;;;;;;;12.77;89.53;101966.53;4896295;29;20697;-68
2023/09/14 04:45:50;;;;;;;4.93;3.27;;;;;;;12.81;89.30;101969.81;4896301;29;20617;-68
2023/09/14 04:48:17;;;;;;;10.03;3.67;;;;;;;12.78;89.36;101962.88;4896329;29;20232;-68
2023/09/14 04:50:43;;;;;;;6.83;3.57;;;;;;;12.78;89.37;101967.38;4896193;29;20223;-68
2023/09/14 04:53:10;;;;;;;3.50;3.40;;;;;;;12.76;89.19;101964.84;4896206;29;20673;-68
2023/09/14 04:55:36;;;;;;;2.83;2.73;;;;;;;12.78;89.50;101970.91;4896235;29;20197;-68
2023/09/14 04:58:04;;;;;;;3.73;3.37;;;;;;;12.79;89.34;101969.94;4899355;29;20203;-68
2023/09/14 05:00:33;;;;;;;3.50;3.33;;;;;;;12.76;89.48;101972.06;4899585;29;20223;-67
2023/09/14 05:03:03;;;;;;;4.40;3.77;;;;;;;12.75;89.88;101968.50;4899667;29;20196;-68
2023/09/14 05:05:34;;;;;;;4.20;3.80;;;;;;;12.71;89.60;101972.47;4899473;29;20673;-68
2023/09/14 05:08:02;;;;;;;8.13;3.40;;;;;;;12.72;89.71;101973.31;4899867;29;20189;-68
2023/09/14 05:10:29;;;;;;;3.67;3.53;;;;;;;12.74;89.60;101965.94;4899439;29;20715;-68
2023/09/14 05:12:55;;;;;;;14.93;3.40;;;;;;;12.76;90.06;101966.69;4901341;29;20738;-68
2023/09/14 05:15:22;;;;;;;4.40;3.70;;;;;;;12.79;89.54;101961.88;4899798;29;20189;-68
2023/09/14 05:17:50;;;;;;;3.73;3.63;;;;;;;12.83;89.77;101960.63;4899323;29;20248;-68
2023/09/14 05:20:17;;;;;;;5.37;4.97;;;;;;;12.80;89.24;101962.75;4899198;29;20723;-68
2023/09/14 05:22:44;;;;;;;5.00;3.97;;;;;;;12.79;89.71;101961.88;4900443;29;20192;-68
2023/09/14 05:25:11;;;;;;;3.90;3.60;;;;;;;12.76;89.66;101967.53;4899204;29;20308;-68
2023/09/14 05:27:39;;;;;;;3.70;3.50;;;;;;;12.78;89.76;101970.06;4900370;29;20225;-67
2023/09/14 05:30:06;;;;;;;3.83;2.93;;;;;;;12.80;89.78;101962.75;4899066;29;20613;-68
2023/09/14 05:32:33;;;;;;;3.93;3.80;;;;;;;12.79;89.88;101969.94;4899098;29;20197;-67
2023/09/14 05:35:00;;;;;;;4.40;4.20;;;;;;;12.78;89.19;101967.38;4900251;29;20191;-67
2023/09/14 05:37:27;;;;;;;5.17;3.77;;;;;;;12.80;89.34;101974.34;4900240;29;20192;-67
2023/09/14 05:39:54;;;;;;;4.10;3.80;;;;;;;12.80;89.56;101965.44;4898939;29;20592;-68
2023/09/14 05:42:22;;;;;;;3.77;3.60;;;;;;;12.83;89.28;101974.06;4898889;29;20669;-68
2023/09/14 05:44:49;;;;;;;4.67;4.20;;;;;;;12.85;89.04;101967.72;4900013;29;20205;-68
2023/09/14 05:47:15;;;;;;;4.50;4.13;;;;;;;12.86;89.18;101977.47;4898825;29;20267;-67
2023/09/14 05:49:44;;;;;;;7.63;4.30;;;;;;;12.87;89.13;101974.63;4899430;29;20223;-68
2023/09/14 05:52:10;;;;;;;4.27;4.27;;;;;;;12.91;89.08;101975.19;4899012;29;20200;-68
2023/09/14 05:54:37;;;;;;;3.97;3.77;;;;;;;12.94;89.01;101973.13;4898715;29;20193;-68
2023/09/14 05:57:04;;;;;;;4.27;4.03;;;;;;;12.94;88.83;101977.63;4898644;29;20204;-68
2023/09/14 05:59:31;;;;;;;4.90;4.50;;;;;;;12.95;88.69;101973.94;4899318;29;20488;-68
2023/09/14 06:02:01;;;;;;;3.37;3.27;;;;;;;12.99;88.88;101978.03;4898618;29;20216;-67
2023/09/14 06:04:28;;;;;;;3.80;3.70;;;;;;;13.02;88.79;101975.97;4899939;29;20209;-67
2023/09/14 06:06:54;;;;;;;7.57;4.07;;;;;;;12.99;88.27;101981.59;4899750;29;20220;-67
2023/09/14 06:09:21;;;;;;;4.37;3.70;;;;;;;13.04;88.89;101990.09;4899255;29;20557;-68
2023/09/14 06:11:47;;;;;;;6.73;3.70;;;;;;;13.06;88.39;101989.97;4898336;29;20577;-67
2023/09/14 06:14:14;;;;;;;4.17;3.93;;;;;;;13.11;88.31;101993.13;4898377;29;20252;-67
2023/09/14 06:16:40;;;;;;;4.50;4.13;;;;;;;13.13;88.51;101997.34;4900020;29;20248;-67
2023/09/14 06:19:07;;;;;;;4.30;3.90;;;;;;;13.19;88.40;101999.50;4900150;29;20275;-67
2023/09/14 06:21:34;;;;;;;10.80;4.40;;;;;;;13.27;88.61;102002.34;4899285;29;20220;-68
2023/09/14 06:24:01;;;;;;;5.13;3.50;;;;;;;13.32;88.81;102001.94;4900006;29;20223;-67
2023/09/14 06:26:28;;;;;;;3.97;3.67;;;;;;;13.35;88.50;102004.34;4899579;29;20188;-67
2023/09/14 06:28:55;;;;;;;4.97;4.53;;;;;;;13.36;88.44;102003.34;4899277;29;20196;-67
2023/09/14 06:31:25;;;;;;;8.67;4.57;;;;;;;13.36;88.07;101995.28;4899217;29;20224;-68
2023/09/14 06:33:52;;;;;;;5.07;4.63;;;;;;;13.38;87.91;102001.38;4899198;29;20200;-67
2023/09/14 06:36:19;;;;;;;4.20;4.00;;;;;;;13.39;87.88;102018.34;4899193;29;20196;-67
2023/09/14 06:38:46;;;;;;;5.23;4.37;;;;;;;13.41;88.26;102011.81;4899125;29;20197;-67
2023/09/14 06:41:13;;;;;;;8.57;4.47;;;;;;;13.46;87.87;102014.09;4899031;29;20220;-67
2023/09/14 06:43:46;;;;;;;3.50;3.40;;;;;;;13.53;87.69;102017.94;4898907;29;20188;-67
2023/09/14 06:46:13;;;;;;;3.97;3.73;;;;;;;13.58;88.10;102015.66;4899539;29;20216;-67
2023/09/14 06:48:40;;;;;;;4.97;4.37;;;;;;;13.62;87.91;102014.44;4898869;29;20189;-68
2023/09/14 06:51:07;;;;;;;8.07;5.20;;;;;;;13.65;87.82;102011.44;4898942;29;20212;-67
2023/09/14 06:53:34;;;;;;;4.57;4.30;;;;;;;13.70;87.62;102018.09;4898859;29;20282;-67
2023/09/14 06:56:07;;;;;;;5.87;4.63;;;;;;;13.75;87.60;102016.84;4899026;29;20562;-67
2023/09/14 06:58:34;;;;;;;7.77;4.23;;;;;;;13.79;87.61;102019.06;4899074;29;20629;-68
2023/09/14 07:01:05;;;;;;;4.57;4.37;;;;;;;13.82;87.45;102015.28;4898625;29;20304;-67
2023/09/14 07:03:33;;;;;;;5.03;4.63;;;;;;;13.87;87.55;102019.25;4899079;29;20545;-67
2023/09/14 07:06:00;;;;;;;6.70;4.53;;;;;;;13.95;87.54;102019.38;4898531;29;20209;-67
2023/09/14 07:08:27;;;;;;;5.77;4.93;;;;;;;13.98;87.40;102018.25;4898617;29;20208;-67
2023/09/14 07:10:54;;;;;;;7.07;4.63;;;;;;;14.01;87.30;102020.63;4898470;29;20216;-67
2023/09/14 07:13:21;;;;;;;23.00;5.47;;;;;;;14.08;86.95;102029.84;4898712;29;20192;-67
2023/09/14 07:15:48;;;;;;;9.80;5.53;;;;;;;14.12;87.43;102023.19;4898474;29;20279;-67
2023/09/14 07:18:29;;;;;;;6.80;5.43;;;;;;;14.08;86.59;102019.94;4898477;29;20215;-67
2023/09/14 07:20:57;;;;;;;10.47;4.83;;;;;;;14.12;86.60;102024.03;4898743;29;20384;-67
2023/09/14 07:23:24;;;;;;;8.90;5.90;;;;;;;14.17;86.18;102018.25;4898619;29;20192;-67
2023/09/14 07:25:51;;;;;;;8.87;6.40;;;;;;;14.21;86.18;102029.56;4898312;29;20216;-67
2023/09/14 07:28:19;;;;;;;10.93;5.67;;;;;;;14.23;86.71;102027.56;4898316;29;20211;-67
2023/09/14 07:30:48;;;;;;;4.93;4.30;;;;;;;14.31;86.33;102028.53;4896922;29;20295;-67
2023/09/14 07:33:16;;;;;;;4.93;4.67;;;;;;;14.41;86.02;102032.09;4898295;29;20319;-67
2023/09/14 07:35:42;;;;;;;8.07;5.93;;;;;;;14.47;86.15;102034.19;4898658;29;20244;-67
2023/09/14 07:38:12;;;;;;;10.67;4.13;;;;;;;14.55;85.99;102034.31;4898155;29;20192;-67
2023/09/14 07:40:39;;;;;;;4.47;4.33;;;;;;;14.61;86.14;102036.44;4898027;29;20220;-67
2023/09/14 07:43:05;;;;;;;5.93;5.33;;;;;;;14.67;85.88;102036.84;4898039;29;20208;-67
2023/09/14 07:45:37;;;;;;;6.23;5.90;;;;;;;14.70;85.09;102041.94;4898031;29;20216;-67
2023/09/14 07:48:06;;;;;;;6.03;5.43;;;;;;;14.77;84.36;102043.03;4896834;29;20200;-67
2023/09/14 07:50:39;;;;;;;8.03;5.70;;;;;;;14.81;84.43;102042.59;4898141;29;20772;-67
2023/09/14 07:53:07;;;;;;;5.90;5.40;;;;;;;14.86;83.96;102048.41;4898413;29;20554;-67
2023/09/14 07:55:34;;;;;;;14.87;6.07;;;;;;;14.92;84.22;102046.97;4898372;29;20193;-67
2023/09/14 07:58:01;;;;;;;46.27;10.37;;;;;;;14.99;84.46;102051.63;4898651;29;20188;-67
2023/09/14 08:00:28;;;;;;;15.33;7.63;;;;;;;15.05;84.13;102047.50;4897985;29;20216;-67
2023/09/14 08:02:54;;;;;;;6.03;5.43;;;;;;;15.12;84.35;102047.72;4898050;29;20196;-67
2023/09/14 08:05:20;;;;;;;12.50;6.93;;;;;;;15.18;83.98;102042.59;4898183;29;20200;-67
2023/09/14 08:07:47;;;;;;;7.53;6.53;;;;;;;15.26;83.94;102044.53;4898540;29;20188;-67
2023/09/14 08:10:14;;;;;;;6.50;5.83;;;;;;;15.38;83.46;102040.66;4898196;29;20212;-67
2023/09/14 08:12:40;;;;;;;8.57;6.83;;;;;;;15.49;82.98;102040.44;4898695;29;20200;-67
2023/09/14 08:15:07;;;;;;;7.17;6.00;;;;;;;15.57;82.39;102035.19;4898180;29;20258;-67
2023/09/14 08:17:34;;;;;;;10.07;6.77;;;;;;;15.62;82.31;102040.94;4897875;29;20276;-67
2023/09/14 08:20:01;;;;;;;7.33;6.73;;;;;;;15.73;82.00;102040.75;4897832;29;20700;-68
2023/09/14 08:22:27;;;;;;;7.40;6.73;;;;;;;15.78;81.71;102038.44;4897894;29;20203;-68
2023/09/14 08:24:55;;;;;;;5.47;5.27;;;;;;;15.92;81.89;102042.44;4898088;29;20212;-67
2023/09/14 08:27:23;;;;;;;9.70;6.37;;;;;;;16.00;81.38;102040.66;4898068;29;20542;-67
2023/09/14 08:29:49;;;;;;;15.97;10.60;;;;;;;16.11;81.03;102038.72;4897794;29;20217;-68
2023/09/14 08:32:16;;;;;;;10.27;6.20;;;;;;;16.24;80.88;102044.56;4900507;29;20196;-68
2023/09/14 08:34:42;;;;;;;7.10;5.97;;;;;;;16.35;80.45;102049.72;4902065;29;20681;-68
2023/09/14 08:37:10;;;;;;;16.93;7.40;;;;;;;16.43;79.10;102047.91;4901472;29;20204;-68
2023/09/14 08:39:38;;;;;;;5.73;5.27;;;;;;;16.54;75.78;102046.84;4901637;29;20604;-68
2023/09/14 08:42:04;;;;;;;11.27;5.97;;;;;;;16.65;75.35;102041.19;4901529;29;20196;-68
2023/09/14 08:44:33;;;;;;;8.87;6.73;;;;;;;16.70;76.15;102044.25;4901295;29;20193;-68
2023/09/14 08:47:01;;;;;;;7.83;6.30;;;;;;;16.74;74.94;102051.03;4901536;29;20204;-67
2023/09/14 08:49:30;;;;;;;6.93;6.27;;;;;;;16.75;75.68;102049.19;4901178;29;20207;-68
2023/09/14 08:51:59;;;;;;;6.90;6.13;;;;;;;16.76;74.26;102040.91;4901220;29;20201;-67
2023/09/14 08:54:25;;;;;;;6.37;5.37;;;;;;;16.73;74.55;102053.88;4901492;29;20201;-67
2023/09/14 08:56:52;;;;;;;5.77;5.13;;;;;;;16.70;75.09;102052.38;4901371;29;20189;-67
2023/09/14 08:59:20;;;;;;;5.17;4.87;;;;;;;16.69;75.59;102044.41;4901248;29;20718;-68
2023/09/14 09:01:48;;;;;;;4.97;4.57;;;;;;;16.72;76.17;102053.03;4901020;29;20207;-68
2023/09/14 09:04:15;;;;;;;4.50;4.10;;;;;;;16.81;76.34;102045.84;4901405;29;20637;-68
2023/09/14 09:06:42;;;;;;;8.13;4.97;;;;;;;16.86;75.58;102048.91;4901246;29;20280;-68
2023/09/14 09:09:10;;;;;;;6.93;3.90;;;;;;;16.90;75.18;102044.88;4901095;29;20249;-68
2023/09/14 09:11:37;;;;;;;4.83;4.43;;;;;;;16.96;74.74;102044.25;4900808;29;20270;-68
2023/09/14 09:14:04;;;;;;;7.63;4.67;;;;;;;17.01;73.42;102038.38;4900804;29;20189;-67
2023/09/14 09:16:31;;;;;;;6.33;3.90;;;;;;;17.01;71.41;102043.75;4901013;29;20199;-67
2023/09/14 09:19:02;;;;;;;8.07;4.60;;;;;;;16.98;70.48;102036.81;4900986;29;20193;-67
2023/09/14 09:21:34;;;;;;;4.20;4.10;;;;;;;16.93;70.85;102041.84;4900852;29;20208;-68
2023/09/14 09:24:06;;;;;;;7.83;3.77;;;;;;;16.95;70.07;102039.84;4900959;29;20173;-68
2023/09/14 09:26:37;;;;;;;12.43;4.03;;;;;;;16.99;70.71;102037.66;4900560;29;20256;-68
2023/09/14 09:29:18;;;;;;;3.97;3.87;;;;;;;17.02;70.75;102040.03;4900868;29;20236;-67
2023/09/14 09:31:46;;;;;;;4.57;3.77;;;;;;;16.99;67.79;102038.50;4900826;29;20189;-67
2023/09/14 09:34:13;;;;;;;3.37;3.17;;;;;;;17.04;68.18;102040.72;4901006;29;20185;-67
2023/09/14 09:36:40;;;;;;;3.50;3.03;;;;;;;17.10;68.36;102035.50;4900709;29;20210;-67
2023/09/14 09:39:07;;;;;;;3.60;2.80;;;;;;;17.19;67.02;102028.28;4900377;29;20196;-67
2023/09/14 09:41:37;;;;;;;2.63;2.53;;;;;;;17.24;66.54;102032.19;4900288;29;20212;-67
2023/09/14 09:44:07;;;;;;;2.17;2.07;;;;;;;17.32;64.06;102023.28;4898998;29;20204;-67
2023/09/14 09:46:36;;;;;;;2.30;2.20;;;;;;;17.35;63.28;102028.38;4900487;29;20204;-67
2023/09/14 09:49:14;;;;;;;3.07;2.90;;;;;;;17.42;62.26;102025.84;4900758;29;20211;-68
2023/09/14 09:51:41;;;;;;;4.40;4.07;;;;;;;17.46;64.28;102028.06;4900438;29;20633;-67
2023/09/14 09:54:08;;;;;;;3.20;3.20;;;;;;;17.56;63.36;102022.50;4900547;29;20328;-67
2023/09/14 09:56:37;;;;;;;6.03;3.83;;;;;;;17.72;65.06;102027.97;4900259;29;20188;-67
2023/09/14 09:59:09;;;;;;;2.60;2.47;;;;;;;17.80;64.42;102025.28;4900593;29;20244;-67
2023/09/14 10:01:40;;;;;;;3.30;3.23;;;;;;;17.76;64.93;102019.38;4899938;29;20212;-68
2023/09/14 10:04:14;;;;;;;5.60;3.10;;;;;;;17.74;64.89;102020.53;4899965;29;20652;-68
2023/09/14 10:06:41;;;;;;;4.00;3.60;;;;;;;17.74;64.88;102015.97;4900099;29;20287;-68
2023/09/14 10:09:09;;;;;;;3.70;3.40;;;;;;;17.74;63.85;102009.72;4899737;29;20196;-68
2023/09/14 10:11:37;;;;;;;4.50;3.90;;;;;;;17.78;64.45;102016.47;4900278;29;20212;-68
2023/09/14 10:14:04;;;;;;;4.40;4.27;;;;;;;17.80;62.67;102012.59;4899750;29;20193;-68
2023/09/14 10:16:44;;;;;;;4.30;4.10;;;;;;;17.63;63.87;102018.16;4899723;29;20204;-68
2023/09/14 10:19:11;;;;;;;3.87;3.67;;;;;;;17.62;62.57;102014.59;4899866;29;20758;-68
2023/09/14 10:21:42;;;;;;;8.60;4.20;;;;;;;17.62;60.09;102016.44;4899465;29;20212;-68
2023/09/14 10:24:09;;;;;;;3.53;3.23;;;;;;;17.56;60.12;102017.09;4899827;29;20698;-68
2023/09/14 10:26:37;;;;;;;3.47;3.13;;;;;;;17.48;59.80;102014.38;4899969;29;20224;-68
2023/09/14 10:29:07;;;;;;;3.63;3.63;;;;;;;17.42;61.16;102010.47;4899432;29;20185;-67
2023/09/14 10:31:35;;;;;;;3.20;3.10;;;;;;;17.51;61.26;102006.78;4899342;29;20217;-68
2023/09/14 10:34:03;;;;;;;4.20;3.30;;;;;;;17.65;61.36;102003.44;4899883;29;20192;-68
2023/09/14 10:36:32;;;;;;;4.07;3.67;;;;;;;17.69;60.17;102001.28;4899660;29;20237;-68
2023/09/14 10:39:05;;;;;;;3.73;3.20;;;;;;;17.66;59.83;102005.13;4899292;29;20204;-68
2023/09/14 10:41:32;;;;;;;4.60;4.00;;;;;;;17.59;59.79;102000.56;4899704;29;20219;-68
2023/09/14 10:43:59;;;;;;;3.17;3.03;;;;;;;17.49;59.26;102003.38;4899424;29;20197;-68
2023/09/14 10:46:31;;;;;;;6.33;3.67;;;;;;;17.46;60.00;102000.16;4899646;29;20561;-68
2023/09/14 10:48:58;;;;;;;3.90;3.70;;;;;;;17.44;60.90;101999.50;4899387;29;20192;-67
2023/09/14 10:51:26;;;;;;;3.70;3.60;;;;;;;17.43;61.80;101997.81;4899287;29;20688;-68
2023/09/14 10:53:53;;;;;;;6.33;3.60;;;;;;;17.45;62.70;101995.75;4898925;29;20578;-68
2023/09/14 10:56:31;;;;;;;3.50;3.40;;;;;;;17.46;62.94;101987.50;4899479;29;20248;-68
2023/09/14 10:58:59;;;;;;;3.13;3.13;;;;;;;17.56;61.89;101988.22;4899233;29;20193;-68
2023/09/14 11:01:28;;;;;;;3.50;3.20;;;;;;;17.53;61.64;101988.50;4899024;29;20212;-68
2023/09/14 11:04:18;;;;;;;3.87;3.70;;;;;;;17.58;62.35;101991.59;4899426;29;20184;-68
2023/09/14 11:06:51;;;;;;;3.40;3.20;;;;;;;17.56;63.08;101992.75;4899298;29;20201;-68
2023/09/14 11:09:23;;;;;;;3.67;3.43;;;;;;;17.60;62.54;101989.59;4898981;29;20248;-68
2023/09/14 11:11:52;;;;;;;4.03;3.93;;;;;;;17.60;62.74;101988.75;4898651;29;20223;-67
2023/09/14 11:14:24;;;;;;;2.87;2.77;;;;;;;17.61;62.77;101990.44;4899151;29;20621;-67
2023/09/14 11:16:53;;;;;;;3.33;3.13;;;;;;;17.61;62.44;101990.44;4898629;29;20185;-67
2023/09/14 11:19:42;;;;;;;3.10;3.10;;;;;;;17.61;62.47;101980.44;4898754;29;20196;-68
2023/09/14 11:22:15;;;;;;;3.50;3.40;;;;;;;17.62;62.51;101981.28;4898824;29;20177;-67
2023/09/14 11:24:44;;;;;;;3.50;3.20;;;;;;;17.60;63.00;101986.91;4898848;29;20197;-68
2023/09/14 11:27:18;;;;;;;4.17;3.97;;;;;;;17.63;61.84;101980.28;4898640;29;20605;-67
2023/09/14 11:29:49;;;;;;;4.10;3.70;;;;;;;17.61;61.09;101976.94;4898636;29;20250;-68